createdAt,value
2023-11-19T00:00:29.270Z,100842.16
2023-11-19T00:02:57.610Z,100833.91
2023-11-19T00:05:25.844Z,100833.91
2023-11-19T00:07:54.130Z,100838.50
2023-11-19T00:10:22.524Z,100830.63
2023-11-19T00:12:51.812Z,100830.72
2023-11-19T00:15:20.663Z,100815.22
2023-11-19T00:17:50.277Z,100830.84
2023-11-19T00:20:25.387Z,100830.25
2023-11-19T00:22:53.607Z,100832.13
2023-11-19T00:25:23.582Z,100835.06
2023-11-19T00:27:54.751Z,100836.78
2023-11-19T00:30:23.304Z,100815.13
2023-11-19T00:32:51.558Z,100818.94
2023-11-19T00:35:19.855Z,100811.94
2023-11-19T00:37:49.045Z,100802.34
2023-11-19T00:40:19.748Z,100811.34
2023-11-19T00:42:49.045Z,100811.94
2023-11-19T00:45:17.512Z,100803.97
2023-11-19T00:47:45.848Z,100804.56
2023-11-19T00:50:14.547Z,100801.75
2023-11-19T00:52:42.952Z,100803.56
2023-11-19T00:55:12.912Z,100797.28
2023-11-19T00:57:42.324Z,100777.88
2023-11-19T01:00:21.244Z,100797.56
2023-11-19T01:02:52.260Z,100799.16
2023-11-19T01:05:23.915Z,100799.28
2023-11-19T01:07:55.747Z,100794.84
2023-11-19T01:10:24.616Z,100794.09
2023-11-19T01:12:53.537Z,100793.88
2023-11-19T01:15:21.942Z,100812.56
2023-11-19T01:20:22.474Z,100791.88
2023-11-19T01:22:51.700Z,100772.94
2023-11-19T01:25:20.625Z,100771.50
2023-11-19T01:27:49.165Z,100782.31
2023-11-19T01:30:17.473Z,100777.03
2023-11-19T01:32:45.803Z,100765.22
2023-11-19T01:35:14.317Z,100772.59
2023-11-19T01:37:42.572Z,100772.72
2023-11-19T01:40:13.048Z,100771.50
2023-11-19T01:42:42.289Z,100775.91
2023-11-19T01:45:11.744Z,100772.25
2023-11-19T01:47:40.554Z,100771.25
2023-11-19T01:50:10.513Z,100783.75
2023-11-19T01:52:40.209Z,100766.09
2023-11-19T01:55:11.276Z,100780.56
2023-11-19T01:57:42.326Z,100786.13
2023-11-19T02:00:14.903Z,100774.19
2023-11-19T02:02:47.628Z,100779.63
2023-11-19T02:05:16.410Z,100773.47
2023-11-19T02:07:44.668Z,100766.56
2023-11-19T02:10:15.949Z,100772.50
2023-11-19T02:12:44.488Z,100765.59
2023-11-19T02:15:13.283Z,100766.84
2023-11-19T02:17:41.745Z,100764.88
2023-11-19T02:20:13.195Z,100782.47
2023-11-19T02:22:41.784Z,100785.50
2023-11-19T02:25:17.912Z,100782.09
2023-11-19T02:27:58.904Z,100787.97
2023-11-19T02:30:30.474Z,100785.50
2023-11-19T02:32:59.854Z,100796.69
2023-11-19T02:35:28.450Z,100794.22
2023-11-19T02:37:56.820Z,100801.75
2023-11-19T02:40:26.434Z,100794.09
2023-11-19T02:42:57.085Z,100789.81
2023-11-19T02:45:27.195Z,100786.25
2023-11-19T02:47:56.448Z,100777.50
2023-11-19T02:50:27.956Z,100776.88
2023-11-19T02:52:58.446Z,100770.53
2023-11-19T02:55:29.506Z,100777.88
2023-11-19T02:58:00.852Z,100769.91
2023-11-19T03:00:37.267Z,100783.28
2023-11-19T03:03:21.532Z,100779.59
2023-11-19T03:05:50.143Z,100774.81
2023-11-19T03:10:50.238Z,100772.19
2023-11-19T03:13:19.345Z,100780.03
2023-11-19T03:15:47.776Z,100775.84
2023-11-19T03:18:16.177Z,100778.78
2023-11-19T03:20:44.470Z,100781.47
2023-11-19T03:23:12.687Z,100778.28
2023-11-19T03:25:41.006Z,100783.16
2023-11-19T03:28:09.302Z,100776.50
2023-11-19T03:30:37.578Z,100776.63
2023-11-19T03:33:06.064Z,100776.00
2023-11-19T03:35:34.445Z,100767.19
2023-11-19T03:38:02.710Z,100764.94
2023-11-19T03:40:31.427Z,100767.75
2023-11-19T03:43:00.068Z,100760.66
2023-11-19T03:45:28.345Z,100757.09
2023-11-19T03:47:56.979Z,100755.59
2023-11-19T03:50:25.212Z,100758.75
2023-11-19T03:52:53.964Z,100768.69
2023-11-19T03:55:22.314Z,100770.75
2023-11-19T03:57:50.840Z,100776.50
2023-11-19T04:00:19.299Z,100780.94
2023-11-19T04:02:48.332Z,100781.03
2023-11-19T04:05:16.668Z,100783.25
2023-11-19T04:07:44.964Z,100791.53
2023-11-19T04:10:13.861Z,100787.38
2023-11-19T04:12:42.130Z,100785.63
2023-11-19T04:15:10.555Z,100786.63
2023-11-19T04:17:38.820Z,100791.13
2023-11-19T04:20:11.939Z,100792.25
2023-11-19T04:22:40.199Z,100799.34
2023-11-19T04:25:08.936Z,100795.69
2023-11-19T04:27:37.199Z,100802.69
2023-11-19T04:30:06.336Z,100796.53
2023-11-19T04:32:34.694Z,100787.69
2023-11-19T04:35:02.913Z,100788.56
2023-11-19T04:37:31.161Z,100792.13
2023-11-19T04:40:01.299Z,100788.91
2023-11-19T04:42:30.759Z,100790.84
2023-11-19T04:44:58.994Z,100796.25
2023-11-19T04:47:27.249Z,100799.94
2023-11-19T04:49:55.604Z,100799.38
2023-11-19T04:52:24.072Z,100802.28
2023-11-19T04:54:52.332Z,100786.97
2023-11-19T04:57:20.567Z,100784.50
2023-11-19T04:59:48.998Z,100789.03
2023-11-19T05:02:17.233Z,100785.69
2023-11-19T05:04:46.903Z,100788.50
2023-11-19T05:07:15.247Z,100793.38
2023-11-19T05:09:44.453Z,100801.22
2023-11-19T05:12:13.666Z,100800.63
2023-11-19T05:14:42.121Z,100806.97
2023-11-19T05:17:10.468Z,100809.66
2023-11-19T05:19:38.705Z,100815.34
2023-11-19T05:22:07.509Z,100805.66
2023-11-19T05:24:37.147Z,100793.59
2023-11-19T05:27:05.533Z,100796.53
2023-11-19T05:29:33.760Z,100790.25
2023-11-19T05:32:02.317Z,100803.97
2023-11-19T05:34:30.540Z,100804.19
2023-11-19T05:36:59.030Z,100814.97
2023-11-19T05:39:27.238Z,100798.16
2023-11-19T05:41:55.449Z,100800.84
2023-11-19T05:44:23.629Z,100802.91
2023-11-19T05:46:52.006Z,100805.72
2023-11-19T05:49:20.252Z,100806.69
2023-11-19T05:51:48.492Z,100799.56
2023-11-19T05:54:17.265Z,100804.09
2023-11-19T05:56:50.634Z,100807.66
2023-11-19T05:59:18.933Z,100810.34
2023-11-19T06:01:47.682Z,100804.09
2023-11-19T06:04:16.028Z,100807.53
2023-11-19T06:06:44.515Z,100803.13
2023-11-19T06:09:14.674Z,100799.34
2023-11-19T06:11:43.093Z,100804.09
2023-11-19T06:14:11.316Z,100797.88
2023-11-19T06:16:41.537Z,100795.47
2023-11-19T06:19:11.318Z,100801.63
2023-11-19T06:21:39.660Z,100804.22
2023-11-19T06:24:08.094Z,100809.72
2023-11-19T06:26:36.277Z,100808.00
2023-11-19T06:29:04.532Z,100813.50
2023-11-19T06:31:32.860Z,100816.84
2023-11-19T06:34:01.185Z,100821.34
2023-11-19T06:36:29.396Z,100826.97
2023-11-19T06:38:57.571Z,100836.88
2023-11-19T06:41:25.736Z,100824.16
2023-11-19T06:43:53.914Z,100826.97
2023-11-19T06:46:22.367Z,100830.84
2023-11-19T06:48:50.609Z,100839.91
2023-11-19T06:51:18.868Z,100845.41
2023-11-19T06:53:47.211Z,100839.16
2023-11-19T06:56:25.460Z,100831.06
2023-11-19T06:58:54.441Z,100839.03
2023-11-19T07:01:23.075Z,100844.31
2023-11-19T07:03:52.624Z,100839.25
2023-11-19T07:09:10.443Z,100851.44
2023-11-19T07:11:43.579Z,100847.75
2023-11-19T07:14:12.623Z,100853.88
2023-11-19T07:16:40.583Z,100857.56
2023-11-19T07:19:08.783Z,100858.53
2023-11-19T07:21:40.804Z,100855.63
2023-11-19T07:24:09.225Z,100859.81
2023-11-19T07:26:38.677Z,100863.38
2023-11-19T07:29:09.016Z,100858.41
2023-11-19T07:31:38.406Z,100876.72
2023-11-19T07:34:07.817Z,100875.66
2023-11-19T07:36:37.278Z,100868.97
2023-11-19T07:39:06.321Z,100871.78
2023-11-19T07:41:34.694Z,100876.19
2023-11-19T07:44:07.986Z,100870.03
2023-11-19T07:46:36.330Z,100874.56
2023-11-19T07:49:04.574Z,100876.94
2023-11-19T07:51:32.838Z,100882.22
2023-11-19T07:54:01.058Z,100876.47
2023-11-19T07:56:29.352Z,100870.78
2023-11-19T07:58:57.612Z,100869.81
2023-11-19T08:01:25.850Z,100867.00
2023-11-19T08:06:25.244Z,100865.38
2023-11-19T08:08:53.607Z,100860.94
2023-11-19T08:11:21.864Z,100859.97
2023-11-19T08:13:50.129Z,100871.41
2023-11-19T08:16:18.428Z,100871.28
2023-11-19T08:18:46.793Z,100870.19
2023-11-19T08:21:15.068Z,100876.22
2023-11-19T08:23:43.718Z,100875.53
2023-11-19T08:26:12.028Z,100866.03
2023-11-19T08:28:40.334Z,100867.34
2023-11-19T08:31:08.536Z,100859.13
2023-11-19T08:33:36.889Z,100877.09
2023-11-19T08:36:06.048Z,100875.31
2023-11-19T08:38:34.280Z,100875.69
2023-11-19T08:41:02.528Z,100880.84
2023-11-19T08:43:32.327Z,100881.00
2023-11-19T08:46:00.615Z,100880.31
2023-11-19T08:48:28.887Z,100874.19
2023-11-19T08:50:57.064Z,100879.88
2023-11-19T08:53:25.351Z,100882.47
2023-11-19T08:55:53.878Z,100887.97
2023-11-19T08:58:22.790Z,100880.22
2023-11-19T09:00:51.001Z,100879.53
2023-11-19T09:03:19.760Z,100878.75
2023-11-19T09:05:48.428Z,100882.44
2023-11-19T09:08:16.720Z,100886.53
2023-11-19T09:10:44.990Z,100877.53
2023-11-19T09:13:13.728Z,100891.19
2023-11-19T09:15:43.767Z,100872.38
2023-11-19T09:18:12.170Z,100883.94
2023-11-19T09:20:40.691Z,100886.56
2023-11-19T09:23:10.586Z,100881.50
2023-11-19T09:28:10.378Z,100887.47
2023-11-19T09:30:39.224Z,100875.78
2023-11-19T09:33:07.703Z,100880.13
2023-11-19T09:35:36.049Z,100873.72
2023-11-19T09:38:06.716Z,100879.75
2023-11-19T09:40:35.030Z,100876.16
2023-11-19T09:43:03.628Z,100876.63
2023-11-19T09:45:40.326Z,100869.94
2023-11-19T09:48:09.058Z,100879.72
2023-11-19T09:50:37.670Z,100880.31
2023-11-19T09:53:06.763Z,100881.44
2023-11-19T09:55:35.042Z,100872.06
2023-11-19T09:58:03.829Z,100865.78
2023-11-19T10:00:32.712Z,100867.66
2023-11-19T10:03:01.326Z,100867.91
2023-11-19T10:05:29.864Z,100869.25
2023-11-19T10:07:58.212Z,100852.88
2023-11-19T10:10:26.604Z,100871.31
2023-11-19T10:15:28.618Z,100856.81
2023-11-19T10:18:00.139Z,100848.06
2023-11-19T10:20:28.420Z,100835.22
2023-11-19T10:22:57.612Z,100834.22
2023-11-19T10:25:28.191Z,100827.34
2023-11-19T10:27:57.544Z,100818.16
2023-11-19T10:30:27.777Z,100828.47
2023-11-19T10:33:18.833Z,100826.84
2023-11-19T10:36:03.518Z,100826.28
2023-11-19T10:38:32.021Z,100825.44
2023-11-19T10:41:00.470Z,100828.09
2023-11-19T10:43:29.314Z,100823.34
2023-11-19T10:46:12.050Z,100824.84
2023-11-19T10:48:41.177Z,100820.50
2023-11-19T10:51:10.012Z,100828.78
2023-11-19T10:53:39.449Z,100828.22
2023-11-19T10:56:12.272Z,100830.06
2023-11-19T10:58:47.548Z,100811.94
2023-11-19T11:01:23.830Z,100824.66
2023-11-19T11:03:55.627Z,100819.16
2023-11-19T11:06:25.187Z,100824.88
2023-11-19T11:08:53.604Z,100832.31
2023-11-19T11:11:24.707Z,100840.66
2023-11-19T11:13:56.820Z,100838.91
2023-11-19T11:16:27.027Z,100830.84
2023-11-19T11:18:56.089Z,100833.28
2023-11-19T11:21:28.010Z,100832.88
2023-11-19T11:24:04.812Z,100831.44
2023-11-19T11:27:15.105Z,100826.63
2023-11-19T11:30:22.112Z,100821.06
2023-11-19T11:33:12.716Z,100820.56
2023-11-19T11:36:03.146Z,100827.81
2023-11-19T11:38:39.053Z,100815.94
2023-11-19T11:41:29.765Z,100829.47
2023-11-19T11:44:01.482Z,100827.25
2023-11-19T11:46:38.448Z,100821.00
2023-11-19T11:49:08.130Z,100821.88
2023-11-19T11:51:45.753Z,100823.06
2023-11-19T11:54:29.181Z,100819.22
2023-11-19T11:59:46.430Z,100816.78
2023-11-19T12:02:18.271Z,100816.88
2023-11-19T12:04:51.246Z,100811.97
2023-11-19T12:07:22.959Z,100810.25
2023-11-19T12:10:14.596Z,100807.34
2023-11-19T12:12:43.297Z,100806.75
2023-11-19T12:15:12.057Z,100802.63
2023-11-19T12:17:47.357Z,100807.19
2023-11-19T12:20:15.621Z,100802.59
2023-11-19T12:22:45.152Z,100798.28
2023-11-19T12:25:14.739Z,100797.47
2023-11-19T12:27:49.294Z,100799.56
2023-11-19T12:30:27.667Z,100807.94
2023-11-19T12:32:56.588Z,100806.91
2023-11-19T12:35:25.488Z,100808.75
2023-11-19T12:37:54.136Z,100803.13
2023-11-19T12:40:24.866Z,100798.72
2023-11-19T12:42:55.006Z,100805.63
2023-11-19T12:45:25.346Z,100805.78
2023-11-19T12:48:07.510Z,100800.97
2023-11-19T12:51:04.118Z,100808.69
2023-11-19T12:53:55.513Z,100812.41
2023-11-19T12:56:24.199Z,100807.47
2023-11-19T12:58:52.684Z,100806.38
2023-11-19T13:01:22.880Z,100805.38
2023-11-19T13:03:52.967Z,100799.13
2023-11-19T13:06:22.757Z,100803.66
2023-11-19T13:08:56.395Z,100803.06
2023-11-19T13:11:38.211Z,100799.88
2023-11-19T13:14:10.013Z,100794.75
2023-11-19T13:16:40.447Z,100797.59
2023-11-19T13:19:10.121Z,100791.22
2023-11-19T13:21:39.307Z,100792.72
2023-11-19T13:24:08.519Z,100793.47
2023-11-19T13:26:36.946Z,100786.63
2023-11-19T13:29:05.466Z,100788.59
2023-11-19T13:31:34.105Z,100780.47
2023-11-19T13:34:18.227Z,100787.84
2023-11-19T13:36:46.764Z,100794.50
2023-11-19T13:39:23.918Z,100784.53
2023-11-19T13:41:52.365Z,100782.28
2023-11-19T13:44:20.602Z,100779.59
2023-11-19T13:46:48.992Z,100774.16
2023-11-19T13:49:17.216Z,100785.69
2023-11-19T13:51:45.610Z,100780.41
2023-11-19T13:54:15.691Z,100790.28
2023-11-19T13:56:45.856Z,100780.81
2023-11-19T13:59:14.036Z,100779.59
2023-11-19T14:01:42.257Z,100770.66
2023-11-19T14:04:10.648Z,100775.94
2023-11-19T14:06:38.981Z,100771.63
2023-11-19T14:09:09.209Z,100779.00
2023-11-19T14:11:37.433Z,100773.72
2023-11-19T14:14:05.600Z,100771.16
2023-11-19T14:16:35.583Z,100768.44
2023-11-19T14:19:04.178Z,100782.38
2023-11-19T14:21:32.723Z,100772.03
2023-11-19T14:24:00.936Z,100783.13
2023-11-19T14:26:29.156Z,100774.16
2023-11-19T14:28:57.386Z,100772.41
2023-11-19T14:31:25.613Z,100783.63
2023-11-19T14:33:55.538Z,100775.56
2023-11-19T14:36:24.808Z,100786.13
2023-11-19T14:38:53.004Z,100781.34
2023-11-19T14:41:21.210Z,100778.91
2023-11-19T14:43:49.509Z,100776.31
2023-11-19T14:46:17.827Z,100775.84
2023-11-19T14:48:46.114Z,100766.84
2023-11-19T14:51:14.371Z,100773.22
2023-11-19T14:53:42.661Z,100777.06
2023-11-19T14:56:17.172Z,100771.91
2023-11-19T14:58:46.110Z,100775.69
2023-11-19T15:01:14.296Z,100769.22
2023-11-19T15:06:13.813Z,100767.34
2023-11-19T15:08:43.083Z,100764.63
2023-11-19T15:11:12.921Z,100763.66
2023-11-19T15:13:43.237Z,100757.25
2023-11-19T15:16:13.246Z,100752.72
2023-11-19T15:18:42.546Z,100757.53
2023-11-19T15:21:10.810Z,100756.03
2023-11-19T15:23:39.167Z,100758.03
2023-11-19T15:26:09.315Z,100764.28
2023-11-19T15:28:37.805Z,100758.88
2023-11-19T15:31:06.299Z,100760.59
2023-11-19T15:33:34.489Z,100761.44
2023-11-19T15:36:08.905Z,100758.53
2023-11-19T15:38:52.953Z,100752.59
2023-11-19T15:41:21.927Z,100752.84
2023-11-19T15:43:50.201Z,100748.91
2023-11-19T15:46:18.428Z,100756.91
2023-11-19T15:48:46.890Z,100755.03
2023-11-19T15:51:15.158Z,100748.53
2023-11-19T15:53:44.799Z,100754.06
2023-11-19T15:56:13.049Z,100750.38
2023-11-19T15:58:41.340Z,100748.53
2023-11-19T16:01:10.133Z,100754.06
2023-11-19T16:06:11.717Z,100749.16
2023-11-19T16:08:40.176Z,100744.47
2023-11-19T16:11:09.541Z,100744.75
2023-11-19T16:13:37.834Z,100747.69
2023-11-19T16:16:07.258Z,100744.13
2023-11-19T16:18:36.303Z,100752.38
2023-11-19T16:21:04.541Z,100750.88
2023-11-19T16:23:33.111Z,100744.59
2023-11-19T16:26:01.418Z,100762.78
2023-11-19T16:28:29.596Z,100760.91
2023-11-19T16:30:57.855Z,100754.81
2023-11-19T16:33:31.051Z,100760.22
2023-11-19T16:35:59.778Z,100765.13
2023-11-19T16:38:28.325Z,100762.91
2023-11-19T16:40:57.214Z,100773.34
2023-11-19T16:43:29.028Z,100754.19
2023-11-19T16:45:58.146Z,100761.66
2023-11-19T16:48:26.501Z,100763.13
2023-11-19T16:53:27.603Z,100769.53
2023-11-19T16:55:55.825Z,100765.34
2023-11-19T16:58:25.186Z,100760.31
2023-11-19T17:00:53.912Z,100757.72
2023-11-19T17:03:22.252Z,100760.75
2023-11-19T17:05:51.499Z,100762.72
2023-11-19T17:08:19.770Z,100762.00
2023-11-19T17:10:48.634Z,100756.84
2023-11-19T17:13:16.957Z,100751.53
2023-11-19T17:15:45.282Z,100749.81
2023-11-19T17:18:13.600Z,100746.50
2023-11-19T17:20:41.936Z,100747.38
2023-11-19T17:23:10.309Z,100757.44
2023-11-19T17:25:39.961Z,100744.16
2023-11-19T17:28:08.956Z,100747.84
2023-11-19T17:30:37.002Z,100747.84
2023-11-19T17:33:06.348Z,100738.78
2023-11-19T17:35:34.927Z,100742.44
2023-11-19T17:38:03.643Z,100737.28
2023-11-19T17:40:32.750Z,100742.69
2023-11-19T17:43:01.074Z,100738.25
2023-11-19T17:45:30.584Z,100734.69
2023-11-19T17:47:58.844Z,100730.28
2023-11-19T17:50:27.253Z,100747.44
2023-11-19T17:52:55.526Z,100731.25
2023-11-19T17:55:23.701Z,100738.50
2023-11-19T17:57:52.566Z,100736.66
2023-11-19T18:00:23.065Z,100726.72
2023-11-19T18:02:53.470Z,100730.41
2023-11-19T18:05:22.560Z,100733.94
2023-11-19T18:07:50.522Z,100719.63
2023-11-19T18:10:18.950Z,100717.03
2023-11-19T18:12:47.307Z,100716.16
2023-11-19T18:15:16.354Z,100718.00
2023-11-19T18:17:45.477Z,100716.28
2023-11-19T18:20:16.116Z,100718.00
2023-11-19T18:22:47.320Z,100719.75
2023-11-19T18:25:19.067Z,100707.06
2023-11-19T18:27:47.798Z,100707.06
2023-11-19T18:30:17.259Z,100714.22
2023-11-19T18:32:46.121Z,100711.53
2023-11-19T18:35:18.080Z,100707.81
2023-11-19T18:37:47.857Z,100706.94
2023-11-19T18:40:20.440Z,100714.09
2023-11-19T18:42:52.921Z,100713.22
2023-11-19T18:45:23.938Z,100706.00
2023-11-19T18:47:52.941Z,100710.41
2023-11-19T18:50:22.263Z,100711.41
2023-11-19T18:52:51.085Z,100709.53
2023-11-19T18:55:19.331Z,100700.59
2023-11-19T18:57:48.064Z,100702.31
2023-11-19T19:00:17.937Z,100698.72
2023-11-19T19:05:20.969Z,100701.34
2023-11-19T19:07:49.434Z,100698.66
2023-11-19T19:10:17.635Z,100697.78
2023-11-19T19:12:46.132Z,100700.34
2023-11-19T19:15:17.388Z,100695.69
2023-11-19T19:17:45.984Z,100695.69
2023-11-19T19:20:14.484Z,100695.44
2023-11-19T19:22:43.933Z,100690.06
2023-11-19T19:25:12.226Z,100702.56
2023-11-19T19:27:40.469Z,100692.75
2023-11-19T19:30:09.991Z,100687.22
2023-11-19T19:32:40.530Z,100693.50
2023-11-19T19:35:09.512Z,100693.38
2023-11-19T19:37:37.516Z,100696.06
2023-11-19T19:40:27.024Z,100684.41
2023-11-19T19:42:54.962Z,100689.81
2023-11-19T19:45:23.947Z,100684.53
2023-11-19T19:47:51.878Z,100688.84
2023-11-19T19:50:20.193Z,100690.66
2023-11-19T19:52:48.493Z,100690.56
2023-11-19T19:55:21.998Z,100703.81
2023-11-19T19:57:50.307Z,100687.72
2023-11-19T20:00:20.105Z,100686.84
2023-11-19T20:02:49.762Z,100689.44
2023-11-19T20:05:18.122Z,100686.72
2023-11-19T20:07:48.924Z,100685.78
2023-11-19T20:10:17.530Z,100688.47
2023-11-19T20:12:45.719Z,100689.22
2023-11-19T20:15:15.888Z,100693.63
2023-11-19T20:17:44.234Z,100689.09
2023-11-19T20:20:12.862Z,100697.06
2023-11-19T20:22:41.407Z,100696.94
2023-11-19T20:25:11.505Z,100697.91
2023-11-19T20:27:39.836Z,100694.13
2023-11-19T20:30:08.649Z,100686.88
2023-11-19T20:32:37.922Z,100701.22
2023-11-19T20:35:08.534Z,100710.06
2023-11-19T20:37:38.559Z,100705.53
2023-11-19T20:40:08.367Z,100704.53
2023-11-19T20:42:38.436Z,100705.41
2023-11-19T20:45:11.605Z,100714.25
2023-11-19T20:47:40.978Z,100710.56
2023-11-19T20:50:10.037Z,100719.53
2023-11-19T20:52:42.146Z,100715.97
2023-11-19T20:55:12.655Z,100716.84
2023-11-19T20:57:41.058Z,100731.22
2023-11-19T21:00:15.495Z,100717.72
2023-11-19T21:02:43.836Z,100728.50
2023-11-19T21:05:12.154Z,100721.25
2023-11-19T21:07:41.411Z,100732.91
2023-11-19T21:10:10.078Z,100720.28
2023-11-19T21:12:38.340Z,100728.38
2023-11-19T21:15:07.320Z,100722.00
2023-11-19T21:17:35.381Z,100713.03
2023-11-19T21:20:04.240Z,100723.00
2023-11-19T21:22:32.135Z,100721.13
2023-11-19T21:25:00.431Z,100727.28
2023-11-19T21:27:30.952Z,100722.00
2023-11-19T21:30:02.203Z,100732.78
2023-11-19T21:32:30.435Z,100735.50
2023-11-19T21:34:58.702Z,100733.66
2023-11-19T21:37:26.920Z,100737.34
2023-11-19T21:39:55.204Z,100739.91
2023-11-19T21:42:23.516Z,100734.63
2023-11-19T21:44:51.749Z,100729.22
2023-11-19T21:47:19.950Z,100736.50
2023-11-19T21:49:49.012Z,100737.34
2023-11-19T21:52:17.227Z,100736.50
2023-11-19T21:54:45.457Z,100748.13
2023-11-19T21:57:13.687Z,100733.91
2023-11-19T21:59:42.226Z,100737.44
2023-11-19T22:02:10.513Z,100732.06
2023-11-19T22:04:38.802Z,100733.03
2023-11-19T22:07:08.560Z,100735.75
2023-11-19T22:09:37.020Z,100740.41
2023-11-19T22:12:05.563Z,100739.53
2023-11-19T22:14:36.728Z,100744.94
2023-11-19T22:17:05.331Z,100735.00
2023-11-19T22:19:33.509Z,100737.81
2023-11-19T22:22:01.776Z,100751.34
2023-11-19T22:24:30.272Z,100752.31
2023-11-19T22:26:58.523Z,100745.19
2023-11-19T22:29:26.750Z,100749.72
2023-11-19T22:31:54.976Z,100746.06
2023-11-19T22:34:23.237Z,100749.72
2023-11-19T22:36:52.194Z,100761.38
2023-11-19T22:39:20.092Z,100771.31
2023-11-19T22:41:48.520Z,100756.84
2023-11-19T22:44:16.697Z,100756.09
2023-11-19T22:46:44.937Z,100760.44
2023-11-19T22:49:13.136Z,100762.38
2023-11-19T22:51:41.424Z,100761.50
2023-11-19T22:54:09.980Z,100761.50
2023-11-19T22:56:38.249Z,100762.38
2023-11-19T22:59:06.485Z,100762.50
2023-11-19T23:01:34.872Z,100768.88
2023-11-19T23:04:03.523Z,100762.63
2023-11-19T23:06:31.820Z,100768.13
2023-11-19T23:09:00.149Z,100761.88
2023-11-19T23:11:28.395Z,100767.28
2023-11-19T23:13:56.587Z,100770.94
2023-11-19T23:16:26.426Z,100772.81
2023-11-19T23:18:55.854Z,100773.53
2023-11-19T23:21:24.057Z,100770.09
2023-11-19T23:23:52.363Z,100780.03
2023-11-19T23:26:21.075Z,100773.75
2023-11-19T23:28:49.976Z,100777.47
2023-11-19T23:31:17.970Z,100782.84
2023-11-19T23:33:46.449Z,100784.69
2023-11-19T23:36:14.707Z,100784.94
2023-11-19T23:38:42.885Z,100783.22
2023-11-19T23:41:11.528Z,100779.66
2023-11-19T23:43:39.821Z,100775.97
2023-11-19T23:46:10.348Z,100780.66
2023-11-19T23:48:59.007Z,100777.94
2023-11-19T23:51:27.553Z,100779.78
2023-11-19T23:53:57.432Z,100788.00
2023-11-19T23:56:25.697Z,100781.72
2023-11-19T23:58:55.070Z,100787.13
